sensor_id;sensor_type;location;lat;lon;timestamp;temperature;humidity
5792;DHT22;2922;53.482;10.006;2023-09-12T06:39:35;20.10;99.90
5792;DHT22;2922;53.482;10.006;2023-09-12T06:42:01;20.10;99.90
5792;DHT22;2922;53.482;10.006;2023-09-12T06:44:27;20.20;99.90
5792;DHT22;2922;53.482;10.006;2023-09-12T06:46:53;20.20;99.90
5792;DHT22;2922;53.482;10.006;2023-09-12T06:49:18;20.20;99.90
5792;DHT22;2922;53.482;10.006;2023-09-12T06:51:44;20.20;99.90
5792;DHT22;2922;53.482;10.006;2023-09-12T06:54:09;20.20;99.90
5792;DHT22;2922;53.482;10.006;2023-09-12T06:56:35;20.20;99.90
5792;DHT22;2922;53.482;10.006;2023-09-12T06:59:06;20.30;99.90
5792;DHT22;2922;53.482;10.006;2023-09-12T07:01:32;20.40;99.90
5792;DHT22;2922;53.482;10.006;2023-09-12T07:03:59;20.40;99.90
5792;DHT22;2922;53.482;10.006;2023-09-12T07:06:25;20.40;99.90
5792;DHT22;2922;53.482;10.006;2023-09-12T07:08:52;20.40;99.90
5792;DHT22;2922;53.482;10.006;2023-09-12T07:11:17;20.40;99.90
5792;DHT22;2922;53.482;10.006;2023-09-12T07:13:44;20.50;99.90
5792;DHT22;2922;53.482;10.006;2023-09-12T07:16:10;20.40;99.90
5792;DHT22;2922;53.482;10.006;2023-09-12T07:18:35;20.40;99.90
5792;DHT22;2922;53.482;10.006;2023-09-12T07:21:03;20.40;99.90
5792;DHT22;2922;53.482;10.006;2023-09-12T07:23:29;20.50;99.90
5792;DHT22;2922;53.482;10.006;2023-09-12T07:25:56;20.50;99.90
5792;DHT22;2922;53.482;10.006;2023-09-12T07:28:23;20.40;99.90
5792;DHT22;2922;53.482;10.006;2023-09-12T07:30:49;20.50;99.90
5792;DHT22;2922;53.482;10.006;2023-09-12T07:33:14;20.50;99.90
5792;DHT22;2922;53.482;10.006;2023-09-12T07:35:40;20.60;99.90
5792;DHT22;2922;53.482;10.006;2023-09-12T07:38:05;20.50;99.90
5792;DHT22;2922;53.482;10.006;2023-09-12T07:40:31;20.50;99.90
5792;DHT22;2922;53.482;10.006;2023-09-12T07:42:56;20.60;99.90
5792;DHT22;2922;53.482;10.006;2023-09-12T07:45:22;20.60;99.90
5792;DHT22;2922;53.482;10.006;2023-09-12T07:47:48;20.60;99.90
5792;DHT22;2922;53.482;10.006;2023-09-12T07:50:14;20.70;99.90
5792;DHT22;2922;53.482;10.006;2023-09-12T07:52:39;20.70;99.90
5792;DHT22;2922;53.482;10.006;2023-09-12T07:55:06;20.70;99.90
5792;DHT22;2922;53.482;10.006;2023-09-12T07:57:32;20.80;99.90
5792;DHT22;2922;53.482;10.006;2023-09-12T07:59:58;20.80;99.90
5792;DHT22;2922;53.482;10.006;2023-09-12T08:02:24;20.80;99.90
5792;DHT22;2922;53.482;10.006;2023-09-12T08:04:50;20.90;99.90
5792;DHT22;2922;53.482;10.006;2023-09-12T08:07:16;20.90;99.90
5792;DHT22;2922;53.482;10.006;2023-09-12T08:10:00;20.90;99.90
5792;DHT22;2922;53.482;10.006;2023-09-12T08:12:27;21.00;99.90
5792;DHT22;2922;53.482;10.006;2023-09-12T08:14:54;21.00;99.90
5792;DHT22;2922;53.482;10.006;2023-09-12T08:17:20;21.10;99.90
5792;DHT22;2922;53.482;10.006;2023-09-12T08:19:46;21.10;99.90
5792;DHT22;2922;53.482;10.006;2023-09-12T08:22:12;21.10;99.90
5792;DHT22;2922;53.482;10.006;2023-09-12T08:24:38;21.10;99.90
5792;DHT22;2922;53.482;10.006;2023-09-12T08:27:05;21.20;99.90
5792;DHT22;2922;53.482;10.006;2023-09-12T08:29:31;21.20;99.90
5792;DHT22;2922;53.482;10.006;2023-09-12T08:31:58;21.30;99.90
5792;DHT22;2922;53.482;10.006;2023-09-12T08:34:24;21.30;99.90
5792;DHT22;2922;53.482;10.006;2023-09-12T08:36:50;21.30;99.90
5792;DHT22;2922;53.482;10.006;2023-09-12T08:39:17;21.30;99.90
5792;DHT22;2922;53.482;10.006;2023-09-12T08:41:43;21.30;99.90
5792;DHT22;2922;53.482;10.006;2023-09-12T08:44:12;21.30;99.90
5792;DHT22;2922;53.482;10.006;2023-09-12T08:46:38;21.30;99.90
5792;DHT22;2922;53.482;10.006;2023-09-12T08:49:06;21.40;99.90
5792;DHT22;2922;53.482;10.006;2023-09-12T08:51:32;21.40;99.90
5792;DHT22;2922;53.482;10.006;2023-09-12T08:53:58;21.50;99.90
5792;DHT22;2922;53.482;10.006;2023-09-12T08:58:51;21.60;99.90
5792;DHT22;2922;53.482;10.006;2023-09-12T09:01:18;21.80;99.90
5792;DHT22;2922;53.482;10.006;2023-09-12T09:03:44;21.90;99.90
5792;DHT22;2922;53.482;10.006;2023-09-12T09:06:11;22.00;99.90
5792;DHT22;2922;53.482;10.006;2023-09-12T09:08:38;22.00;99.90
5792;DHT22;2922;53.482;10.006;2023-09-12T09:11:05;22.00;99.90
5792;DHT22;2922;53.482;10.006;2023-09-12T09:13:33;22.00;99.90
5792;DHT22;2922;53.482;10.006;2023-09-12T09:16:15;21.90;99.90
5792;DHT22;2922;53.482;10.006;2023-09-12T09:19:03;21.90;99.90
5792;DHT22;2922;53.482;10.006;2023-09-12T09:21:32;21.80;99.90
5792;DHT22;2922;53.482;10.006;2023-09-12T09:24:00;21.80;99.90
5792;DHT22;2922;53.482;10.006;2023-09-12T09:26:41;21.80;99.90
5792;DHT22;2922;53.482;10.006;2023-09-12T09:29:09;21.80;99.90
5792;DHT22;2922;53.482;10.006;2023-09-12T09:31:35;21.80;99.90
5792;DHT22;2922;53.482;10.006;2023-09-12T09:34:10;21.90;99.90
5792;DHT22;2922;53.482;10.006;2023-09-12T09:36:36;22.10;99.90
5792;DHT22;2922;53.482;10.006;2023-09-12T09:39:05;22.30;99.90
5792;DHT22;2922;53.482;10.006;2023-09-12T09:41:31;22.60;99.90
5792;DHT22;2922;53.482;10.006;2023-09-12T09:43:58;22.80;99.90
5792;DHT22;2922;53.482;10.006;2023-09-12T09:46:25;23.10;99.90
5792;DHT22;2922;53.482;10.006;2023-09-12T09:48:51;23.20;99.90
5792;DHT22;2922;53.482;10.006;2023-09-12T09:51:19;23.20;99.90
5792;DHT22;2922;53.482;10.006;2023-09-12T09:53:45;23.20;99.90
5792;DHT22;2922;53.482;10.006;2023-09-12T09:56:12;23.10;99.90
5792;DHT22;2922;53.482;10.006;2023-09-12T09:58:48;22.90;99.90
5792;DHT22;2922;53.482;10.006;2023-09-12T10:01:17;22.90;99.90
5792;DHT22;2922;53.482;10.006;2023-09-12T10:03:46;22.80;99.90
5792;DHT22;2922;53.482;10.006;2023-09-12T10:06:13;22.80;99.90
5792;DHT22;2922;53.482;10.006;2023-09-12T10:08:40;22.70;99.90
5792;DHT22;2922;53.482;10.006;2023-09-12T10:11:08;22.70;99.90
5792;DHT22;2922;53.482;10.006;2023-09-12T10:13:35;22.70;99.90
5792;DHT22;2922;53.482;10.006;2023-09-12T10:16:02;22.70;99.90
5792;DHT22;2922;53.482;10.006;2023-09-12T10:18:34;22.70;99.90
5792;DHT22;2922;53.482;10.006;2023-09-12T10:21:16;22.60;99.90
5792;DHT22;2922;53.482;10.006;2023-09-12T10:23:46;22.60;99.90
5792;DHT22;2922;53.482;10.006;2023-09-12T10:26:14;22.60;99.90
5792;DHT22;2922;53.482;10.006;2023-09-12T10:28:43;22.60;99.90
5792;DHT22;2922;53.482;10.006;2023-09-12T10:31:13;22.50;99.90
5792;DHT22;2922;53.482;10.006;2023-09-12T10:33:40;22.40;99.90
5792;DHT22;2922;53.482;10.006;2023-09-12T10:36:06;22.30;99.90
5792;DHT22;2922;53.482;10.006;2023-09-12T10:38:40;22.30;99.90
5792;DHT22;2922;53.482;10.006;2023-09-12T10:41:09;22.30;99.90
5792;DHT22;2922;53.482;10.006;2023-09-12T10:43:37;22.30;99.90
5792;DHT22;2922;53.482;10.006;2023-09-12T10:46:04;22.30;99.90
5792;DHT22;2922;53.482;10.006;2023-09-12T10:48:31;22.20;99.90
5792;DHT22;2922;53.482;10.006;2023-09-12T10:53:27;22.10;99.90
5792;DHT22;2922;53.482;10.006;2023-09-12T10:58:32;22.10;99.90
5792;DHT22;2922;53.482;10.006;2023-09-12T11:01:34;22.00;99.90
5792;DHT22;2922;53.482;10.006;2023-09-12T11:04:29;22.00;99.90
5792;DHT22;2922;53.482;10.006;2023-09-12T11:06:55;21.90;99.90
5792;DHT22;2922;53.482;10.006;2023-09-12T11:09:23;21.90;99.90
5792;DHT22;2922;53.482;10.006;2023-09-12T11:12:04;21.90;99.90
5792;DHT22;2922;53.482;10.006;2023-09-12T11:14:30;21.90;99.90
5792;DHT22;2922;53.482;10.006;2023-09-12T11:19:43;21.90;99.90
5792;DHT22;2922;53.482;10.006;2023-09-12T11:22:30;21.90;99.90
5792;DHT22;2922;53.482;10.006;2023-09-12T11:25:03;21.90;99.90
5792;DHT22;2922;53.482;10.006;2023-09-12T11:30:10;21.80;99.90
5792;DHT22;2922;53.482;10.006;2023-09-12T11:32:37;21.70;99.90
5792;DHT22;2922;53.482;10.006;2023-09-12T11:35:06;21.70;99.90
5792;DHT22;2922;53.482;10.006;2023-09-12T11:37:33;21.70;99.90
5792;DHT22;2922;53.482;10.006;2023-09-12T11:40:01;21.70;99.90
5792;DHT22;2922;53.482;10.006;2023-09-12T11:42:26;21.70;99.90
5792;DHT22;2922;53.482;10.006;2023-09-12T11:44:53;21.70;99.90
5792;DHT22;2922;53.482;10.006;2023-09-12T11:47:18;21.80;99.90
5792;DHT22;2922;53.482;10.006;2023-09-12T11:49:45;21.80;99.90
5792;DHT22;2922;53.482;10.006;2023-09-12T11:52:12;21.70;99.90
5792;DHT22;2922;53.482;10.006;2023-09-12T11:54:40;21.60;99.90
5792;DHT22;2922;53.482;10.006;2023-09-12T11:57:08;21.60;99.90
5792;DHT22;2922;53.482;10.006;2023-09-12T11:59:39;21.60;99.90
5792;DHT22;2922;53.482;10.006;2023-09-12T12:02:08;21.60;99.90
5792;DHT22;2922;53.482;10.006;2023-09-12T12:04:34;21.50;99.90
5792;DHT22;2922;53.482;10.006;2023-09-12T12:07:00;21.60;99.90
5792;DHT22;2922;53.482;10.006;2023-09-12T12:09:27;21.60;99.90
5792;DHT22;2922;53.482;10.006;2023-09-12T12:11:52;21.60;99.90
5792;DHT22;2922;53.482;10.006;2023-09-12T12:14:18;21.60;99.90
5792;DHT22;2922;53.482;10.006;2023-09-12T12:16:46;21.60;99.90
5792;DHT22;2922;53.482;10.006;2023-09-12T12:19:13;21.60;99.90
5792;DHT22;2922;53.482;10.006;2023-09-12T12:21:39;21.60;99.90
5792;DHT22;2922;53.482;10.006;2023-09-12T12:24:11;21.70;99.90
5792;DHT22;2922;53.482;10.006;2023-09-12T12:26:37;21.70;99.90
5792;DHT22;2922;53.482;10.006;2023-09-12T12:29:04;21.70;99.90
5792;DHT22;2922;53.482;10.006;2023-09-12T12:31:30;21.70;99.90
5792;DHT22;2922;53.482;10.006;2023-09-12T12:33:57;21.80;99.90
5792;DHT22;2922;53.482;10.006;2023-09-12T12:36:23;21.80;99.90
5792;DHT22;2922;53.482;10.006;2023-09-12T12:38:50;21.80;99.90
5792;DHT22;2922;53.482;10.006;2023-09-12T12:41:17;21.80;99.90
5792;DHT22;2922;53.482;10.006;2023-09-12T12:43:52;21.90;99.90
5792;DHT22;2922;53.482;10.006;2023-09-12T12:46:20;21.90;99.90
5792;DHT22;2922;53.482;10.006;2023-09-12T12:48:47;21.90;99.90
5792;DHT22;2922;53.482;10.006;2023-09-12T12:51:31;21.90;99.90
5792;DHT22;2922;53.482;10.006;2023-09-12T12:54:04;21.90;99.90
5792;DHT22;2922;53.482;10.006;2023-09-12T12:56:31;21.90;99.90
5792;DHT22;2922;53.482;10.006;2023-09-12T12:59:01;21.80;99.90
5792;DHT22;2922;53.482;10.006;2023-09-12T13:01:33;21.80;99.90
5792;DHT22;2922;53.482;10.006;2023-09-12T13:04:01;21.70;99.90
5792;DHT22;2922;53.482;10.006;2023-09-12T13:06:26;21.80;99.90
5792;DHT22;2922;53.482;10.006;2023-09-12T13:08:55;21.80;99.90
5792;DHT22;2922;53.482;10.006;2023-09-12T13:11:22;21.70;99.90
5792;DHT22;2922;53.482;10.006;2023-09-12T13:13:48;21.70;99.90
5792;DHT22;2922;53.482;10.006;2023-09-12T13:16:14;21.80;99.90
5792;DHT22;2922;53.482;10.006;2023-09-12T13:18:40;21.80;99.90
5792;DHT22;2922;53.482;10.006;2023-09-12T13:21:06;21.80;99.90
5792;DHT22;2922;53.482;10.006;2023-09-12T13:23:37;22.00;99.90
5792;DHT22;2922;53.482;10.006;2023-09-12T13:26:03;22.00;99.90
5792;DHT22;2922;53.482;10.006;2023-09-12T13:28:29;22.20;99.90
5792;DHT22;2922;53.482;10.006;2023-09-12T13:30:55;22.20;99.90
5792;DHT22;2922;53.482;10.006;2023-09-12T13:33:21;22.30;99.90
5792;DHT22;2922;53.482;10.006;2023-09-12T13:35:48;22.50;99.90
5792;DHT22;2922;53.482;10.006;2023-09-12T13:38:14;22.60;99.90
5792;DHT22;2922;53.482;10.006;2023-09-12T13:40:43;22.60;99.90
5792;DHT22;2922;53.482;10.006;2023-09-12T13:43:09;22.50;99.90
5792;DHT22;2922;53.482;10.006;2023-09-12T13:45:35;22.40;99.90
5792;DHT22;2922;53.482;10.006;2023-09-12T13:48:04;22.40;99.90
5792;DHT22;2922;53.482;10.006;2023-09-12T13:50:31;22.50;99.90
5792;DHT22;2922;53.482;10.006;2023-09-12T13:53:01;22.50;99.90
5792;DHT22;2922;53.482;10.006;2023-09-12T13:55:35;22.50;99.90
5792;DHT22;2922;53.482;10.006;2023-09-12T13:58:05;22.50;99.90
5792;DHT22;2922;53.482;10.006;2023-09-12T14:00:32;22.60;99.90
5792;DHT22;2922;53.482;10.006;2023-09-12T14:02:58;22.50;99.90
5792;DHT22;2922;53.482;10.006;2023-09-12T14:05:23;22.40;99.90
5792;DHT22;2922;53.482;10.006;2023-09-12T14:07:50;22.30;99.90
5792;DHT22;2922;53.482;10.006;2023-09-12T14:10:16;22.30;99.90
5792;DHT22;2922;53.482;10.006;2023-09-12T14:12:41;22.30;99.90
5792;DHT22;2922;53.482;10.006;2023-09-12T14:15:08;22.30;99.90
5792;DHT22;2922;53.482;10.006;2023-09-12T14:17:35;22.40;99.90
5792;DHT22;2922;53.482;10.006;2023-09-12T14:20:02;22.50;99.90
5792;DHT22;2922;53.482;10.006;2023-09-12T14:22:27;22.50;99.90
5792;DHT22;2922;53.482;10.006;2023-09-12T14:24:54;22.60;99.90
5792;DHT22;2922;53.482;10.006;2023-09-12T14:27:20;22.60;99.90
5792;DHT22;2922;53.482;10.006;2023-09-12T14:29:46;22.50;99.90
5792;DHT22;2922;53.482;10.006;2023-09-12T14:32:14;22.60;99.90
5792;DHT22;2922;53.482;10.006;2023-09-12T14:34:40;22.60;99.90
5792;DHT22;2922;53.482;10.006;2023-09-12T14:37:05;22.40;99.90
5792;DHT22;2922;53.482;10.006;2023-09-12T14:39:31;22.40;99.90
5792;DHT22;2922;53.482;10.006;2023-09-12T14:41:56;22.40;99.90
5792;DHT22;2922;53.482;10.006;2023-09-12T14:44:23;22.30;99.90
5792;DHT22;2922;53.482;10.006;2023-09-12T14:46:48;22.30;99.90
5792;DHT22;2922;53.482;10.006;2023-09-12T14:49:15;22.30;99.90
5792;DHT22;2922;53.482;10.006;2023-09-12T14:51:42;22.50;99.90
5792;DHT22;2922;53.482;10.006;2023-09-12T14:54:08;22.60;99.90
5792;DHT22;2922;53.482;10.006;2023-09-12T14:56:34;22.60;99.90
5792;DHT22;2922;53.482;10.006;2023-09-12T14:59:03;22.60;99.90
5792;DHT22;2922;53.482;10.006;2023-09-12T15:01:29;22.60;99.90
5792;DHT22;2922;53.482;10.006;2023-09-12T15:03:54;22.60;99.90
5792;DHT22;2922;53.482;10.006;2023-09-12T15:06:20;22.60;99.90
5792;DHT22;2922;53.482;10.006;2023-09-12T15:08:46;22.50;99.90
5792;DHT22;2922;53.482;10.006;2023-09-12T15:11:11;22.60;99.90
5792;DHT22;2922;53.482;10.006;2023-09-12T15:13:37;22.60;99.90
5792;DHT22;2922;53.482;10.006;2023-09-12T15:16:04;22.60;99.90
5792;DHT22;2922;53.482;10.006;2023-09-12T15:18:30;22.60;99.90
5792;DHT22;2922;53.482;10.006;2023-09-12T15:20:56;22.60;99.90
5792;DHT22;2922;53.482;10.006;2023-09-12T15:23:21;22.70;99.90
5792;DHT22;2922;53.482;10.006;2023-09-12T15:25:51;22.70;99.90
5792;DHT22;2922;53.482;10.006;2023-09-12T15:28:17;22.80;99.90
5792;DHT22;2922;53.482;10.006;2023-09-12T15:30:43;22.80;99.90
5792;DHT22;2922;53.482;10.006;2023-09-12T15:33:09;22.80;99.90
5792;DHT22;2922;53.482;10.006;2023-09-12T15:35:34;22.80;99.90
5792;DHT22;2922;53.482;10.006;2023-09-12T15:38:00;22.70;99.90
5792;DHT22;2922;53.482;10.006;2023-09-12T15:40:26;22.60;99.90
5792;DHT22;2922;53.482;10.006;2023-09-12T15:42:52;22.60;99.90
5792;DHT22;2922;53.482;10.006;2023-09-12T15:45:18;22.70;99.90
5792;DHT22;2922;53.482;10.006;2023-09-12T15:47:48;22.70;99.90
5792;DHT22;2922;53.482;10.006;2023-09-12T15:50:14;22.60;99.90
5792;DHT22;2922;53.482;10.006;2023-09-12T15:52:40;22.60;99.90
5792;DHT22;2922;53.482;10.006;2023-09-12T15:55:08;22.60;99.90
5792;DHT22;2922;53.482;10.006;2023-09-12T15:57:34;22.60;99.90
5792;DHT22;2922;53.482;10.006;2023-09-12T16:00:07;22.60;99.90
5792;DHT22;2922;53.482;10.006;2023-09-12T16:02:40;22.60;99.90
5792;DHT22;2922;53.482;10.006;2023-09-12T16:05:06;22.60;99.90
5792;DHT22;2922;53.482;10.006;2023-09-12T16:07:32;22.60;99.90
5792;DHT22;2922;53.482;10.006;2023-09-12T16:09:58;22.60;99.90
5792;DHT22;2922;53.482;10.006;2023-09-12T16:12:23;22.60;99.90
5792;DHT22;2922;53.482;10.006;2023-09-12T16:14:53;22.60;99.90
5792;DHT22;2922;53.482;10.006;2023-09-12T16:17:21;22.50;99.90
5792;DHT22;2922;53.482;10.006;2023-09-12T16:19:47;22.60;99.90
5792;DHT22;2922;53.482;10.006;2023-09-12T16:22:12;22.60;99.90
5792;DHT22;2922;53.482;10.006;2023-09-12T16:24:38;22.60;99.90
5792;DHT22;2922;53.482;10.006;2023-09-12T16:27:04;22.60;99.90
5792;DHT22;2922;53.482;10.006;2023-09-12T16:29:30;22.60;99.90
5792;DHT22;2922;53.482;10.006;2023-09-12T16:31:55;22.50;99.90
5792;DHT22;2922;53.482;10.006;2023-09-12T16:34:21;22.40;99.90
5792;DHT22;2922;53.482;10.006;2023-09-12T16:36:46;22.40;99.90
5792;DHT22;2922;53.482;10.006;2023-09-12T16:39:12;22.40;99.90
5792;DHT22;2922;53.482;10.006;2023-09-12T16:41:37;22.50;99.90
5792;DHT22;2922;53.482;10.006;2023-09-12T16:44:03;22.50;99.90
5792;DHT22;2922;53.482;10.006;2023-09-12T16:46:29;22.50;99.90
5792;DHT22;2922;53.482;10.006;2023-09-12T16:48:55;22.60;99.90
5792;DHT22;2922;53.482;10.006;2023-09-12T16:51:20;22.60;99.90
5792;DHT22;2922;53.482;10.006;2023-09-12T16:53:46;22.50;99.90
5792;DHT22;2922;53.482;10.006;2023-09-12T16:56:12;22.60;99.90
5792;DHT22;2922;53.482;10.006;2023-09-12T16:58:39;22.50;99.90
5792;DHT22;2922;53.482;10.006;2023-09-12T17:01:04;22.40;99.90
5792;DHT22;2922;53.482;10.006;2023-09-12T17:03:30;22.50;99.90
5792;DHT22;2922;53.482;10.006;2023-09-12T17:05:55;22.50;99.90
5792;DHT22;2922;53.482;10.006;2023-09-12T17:08:22;22.40;99.90
5792;DHT22;2922;53.482;10.006;2023-09-12T17:10:48;22.40;99.90
5792;DHT22;2922;53.482;10.006;2023-09-12T17:13:14;22.30;99.90
5792;DHT22;2922;53.482;10.006;2023-09-12T17:15:40;22.30;99.90
5792;DHT22;2922;53.482;10.006;2023-09-12T17:18:06;22.30;99.90
5792;DHT22;2922;53.482;10.006;2023-09-12T17:20:32;22.30;99.90
5792;DHT22;2922;53.482;10.006;2023-09-12T17:22:58;22.20;99.90
5792;DHT22;2922;53.482;10.006;2023-09-12T17:25:23;22.20;99.90
5792;DHT22;2922;53.482;10.006;2023-09-12T17:27:49;22.20;99.90
5792;DHT22;2922;53.482;10.006;2023-09-12T17:30:15;22.10;99.90
5792;DHT22;2922;53.482;10.006;2023-09-12T17:32:41;22.10;99.90
5792;DHT22;2922;53.482;10.006;2023-09-12T17:35:07;22.10;99.90
5792;DHT22;2922;53.482;10.006;2023-09-12T17:37:33;22.00;99.90
5792;DHT22;2922;53.482;10.006;2023-09-12T17:39:59;21.90;99.90
5792;DHT22;2922;53.482;10.006;2023-09-12T17:42:25;21.90;99.90
5792;DHT22;2922;53.482;10.006;2023-09-12T17:44:51;21.90;99.90
5792;DHT22;2922;53.482;10.006;2023-09-12T17:47:17;21.80;99.90
5792;DHT22;2922;53.482;10.006;2023-09-12T17:49:45;21.70;99.90
5792;DHT22;2922;53.482;10.006;2023-09-12T17:52:12;21.70;99.90
5792;DHT22;2922;53.482;10.006;2023-09-12T17:54:38;21.70;99.90
5792;DHT22;2922;53.482;10.006;2023-09-12T17:57:03;21.60;99.90
5792;DHT22;2922;53.482;10.006;2023-09-12T17:59:29;21.60;99.90
5792;DHT22;2922;53.482;10.006;2023-09-12T18:01:56;21.60;99.90
5792;DHT22;2922;53.482;10.006;2023-09-12T18:04:23;21.50;99.90
5792;DHT22;2922;53.482;10.006;2023-09-12T18:06:49;21.50;99.90
5792;DHT22;2922;53.482;10.006;2023-09-12T18:09:14;21.50;99.90
5792;DHT22;2922;53.482;10.006;2023-09-12T18:11:40;21.50;99.90
5792;DHT22;2922;53.482;10.006;2023-09-12T18:14:05;21.40;99.90
5792;DHT22;2922;53.482;10.006;2023-09-12T18:16:31;21.30;99.90
5792;DHT22;2922;53.482;10.006;2023-09-12T18:18:56;21.20;99.90
5792;DHT22;2922;53.482;10.006;2023-09-12T18:21:22;21.20;99.90
5792;DHT22;2922;53.482;10.006;2023-09-12T18:23:47;21.10;99.90
5792;DHT22;2922;53.482;10.006;2023-09-12T18:26:13;21.10;99.90
5792;DHT22;2922;53.482;10.006;2023-09-12T18:28:43;21.10;99.90
5792;DHT22;2922;53.482;10.006;2023-09-12T18:31:14;21.00;99.90
5792;DHT22;2922;53.482;10.006;2023-09-12T18:33:40;20.90;99.90
5792;DHT22;2922;53.482;10.006;2023-09-12T18:36:07;20.80;99.90
5792;DHT22;2922;53.482;10.006;2023-09-12T18:38:34;20.80;99.90
5792;DHT22;2922;53.482;10.006;2023-09-12T18:41:00;20.70;99.90
5792;DHT22;2922;53.482;10.006;2023-09-12T18:43:26;20.70;99.90
5792;DHT22;2922;53.482;10.006;2023-09-12T18:45:52;20.70;99.90
5792;DHT22;2922;53.482;10.006;2023-09-12T18:48:18;20.60;99.90
5792;DHT22;2922;53.482;10.006;2023-09-12T18:50:44;20.60;99.90
5792;DHT22;2922;53.482;10.006;2023-09-12T18:53:12;20.50;99.90
5792;DHT22;2922;53.482;10.006;2023-09-12T18:55:43;20.50;99.90
5792;DHT22;2922;53.482;10.006;2023-09-12T18:58:10;20.50;99.90
5792;DHT22;2922;53.482;10.006;2023-09-12T19:00:37;20.40;99.90
5792;DHT22;2922;53.482;10.006;2023-09-12T19:03:03;20.30;99.90
5792;DHT22;2922;53.482;10.006;2023-09-12T19:05:29;20.30;99.90
5792;DHT22;2922;53.482;10.006;2023-09-12T19:07:55;20.20;99.90
5792;DHT22;2922;53.482;10.006;2023-09-12T19:10:20;20.20;99.90
5792;DHT22;2922;53.482;10.006;2023-09-12T19:12:46;20.20;99.90
5792;DHT22;2922;53.482;10.006;2023-09-12T19:15:12;20.10;99.90
5792;DHT22;2922;53.482;10.006;2023-09-12T19:17:37;20.10;99.90
5792;DHT22;2922;53.482;10.006;2023-09-12T19:20:03;20.00;99.90
5792;DHT22;2922;53.482;10.006;2023-09-12T19:22:33;19.90;99.90
5792;DHT22;2922;53.482;10.006;2023-09-12T19:24:59;19.90;99.90
5792;DHT22;2922;53.482;10.006;2023-09-12T19:27:24;19.80;99.90
5792;DHT22;2922;53.482;10.006;2023-09-12T19:29:53;19.80;99.90
5792;DHT22;2922;53.482;10.006;2023-09-12T19:32:22;19.80;99.90
5792;DHT22;2922;53.482;10.006;2023-09-12T19:34:48;19.70;99.90
5792;DHT22;2922;53.482;10.006;2023-09-12T19:37:14;19.70;99.90
5792;DHT22;2922;53.482;10.006;2023-09-12T19:39:40;19.70;99.90
5792;DHT22;2922;53.482;10.006;2023-09-12T19:42:06;19.60;99.90
5792;DHT22;2922;53.482;10.006;2023-09-12T19:44:32;19.50;99.90
5792;DHT22;2922;53.482;10.006;2023-09-12T19:46:58;19.50;99.90
5792;DHT22;2922;53.482;10.006;2023-09-12T19:49:24;19.40;99.90
5792;DHT22;2922;53.482;10.006;2023-09-12T19:51:49;19.40;99.90
5792;DHT22;2922;53.482;10.006;2023-09-12T19:54:15;19.40;99.90
5792;DHT22;2922;53.482;10.006;2023-09-12T19:56:41;19.30;99.90
5792;DHT22;2922;53.482;10.006;2023-09-12T19:59:07;19.30;99.90
5792;DHT22;2922;53.482;10.006;2023-09-12T20:01:32;19.30;99.90
5792;DHT22;2922;53.482;10.006;2023-09-12T20:03:58;19.20;99.90
5792;DHT22;2922;53.482;10.006;2023-09-12T20:06:24;19.20;99.90
5792;DHT22;2922;53.482;10.006;2023-09-12T20:08:49;19.20;99.90
5792;DHT22;2922;53.482;10.006;2023-09-12T20:11:15;19.10;99.90
5792;DHT22;2922;53.482;10.006;2023-09-12T20:13:41;19.10;99.90
5792;DHT22;2922;53.482;10.006;2023-09-12T20:16:16;19.10;99.90
5792;DHT22;2922;53.482;10.006;2023-09-12T20:18:43;19.00;99.90
5792;DHT22;2922;53.482;10.006;2023-09-12T20:21:09;19.00;99.90
5792;DHT22;2922;53.482;10.006;2023-09-12T20:23:35;19.00;99.90
5792;DHT22;2922;53.482;10.006;2023-09-12T20:26:03;18.90;99.90
5792;DHT22;2922;53.482;10.006;2023-09-12T20:28:33;18.90;99.90
5792;DHT22;2922;53.482;10.006;2023-09-12T20:30:59;18.90;99.90
5792;DHT22;2922;53.482;10.006;2023-09-12T20:33:25;18.90;99.90
5792;DHT22;2922;53.482;10.006;2023-09-12T20:35:51;18.90;99.90
5792;DHT22;2922;53.482;10.006;2023-09-12T20:38:17;18.80;99.90
5792;DHT22;2922;53.482;10.006;2023-09-12T20:40:42;18.80;99.90
5792;DHT22;2922;53.482;10.006;2023-09-12T20:43:10;18.80;99.90
5792;DHT22;2922;53.482;10.006;2023-09-12T20:45:36;18.70;99.90
5792;DHT22;2922;53.482;10.006;2023-09-12T20:48:02;18.70;99.90
5792;DHT22;2922;53.482;10.006;2023-09-12T20:50:29;18.60;99.90
5792;DHT22;2922;53.482;10.006;2023-09-12T20:52:59;18.70;99.90
5792;DHT22;2922;53.482;10.006;2023-09-12T20:55:26;18.60;99.90
5792;DHT22;2922;53.482;10.006;2023-09-12T20:57:52;18.60;99.90
5792;DHT22;2922;53.482;10.006;2023-09-12T21:00:17;18.50;99.90
5792;DHT22;2922;53.482;10.006;2023-09-12T21:02:46;18.50;99.90
5792;DHT22;2922;53.482;10.006;2023-09-12T21:05:11;18.50;99.90
5792;DHT22;2922;53.482;10.006;2023-09-12T21:07:37;18.50;99.90
5792;DHT22;2922;53.482;10.006;2023-09-12T21:10:03;18.40;99.90
5792;DHT22;2922;53.482;10.006;2023-09-12T21:12:29;18.40;99.90
5792;DHT22;2922;53.482;10.006;2023-09-12T21:14:55;18.40;99.90
5792;DHT22;2922;53.482;10.006;2023-09-12T21:17:24;18.40;99.90
5792;DHT22;2922;53.482;10.006;2023-09-12T21:19:50;18.40;99.90
5792;DHT22;2922;53.482;10.006;2023-09-12T21:22:16;18.30;99.90
5792;DHT22;2922;53.482;10.006;2023-09-12T21:24:41;18.40;99.90
5792;DHT22;2922;53.482;10.006;2023-09-12T21:27:07;18.40;99.90
5792;DHT22;2922;53.482;10.006;2023-09-12T21:29:32;18.30;99.90
5792;DHT22;2922;53.482;10.006;2023-09-12T21:31:58;18.30;99.90
5792;DHT22;2922;53.482;10.006;2023-09-12T21:34:24;18.30;99.90
5792;DHT22;2922;53.482;10.006;2023-09-12T21:36:50;18.20;99.90
5792;DHT22;2922;53.482;10.006;2023-09-12T21:39:16;18.20;99.90
5792;DHT22;2922;53.482;10.006;2023-09-12T21:41:41;18.20;99.90
5792;DHT22;2922;53.482;10.006;2023-09-12T21:44:07;18.20;99.90
5792;DHT22;2922;53.482;10.006;2023-09-12T21:46:32;18.20;99.90
5792;DHT22;2922;53.482;10.006;2023-09-12T21:49:00;18.20;99.90
5792;DHT22;2922;53.482;10.006;2023-09-12T21:51:26;18.10;99.90
5792;DHT22;2922;53.482;10.006;2023-09-12T21:53:52;18.10;99.90
5792;DHT22;2922;53.482;10.006;2023-09-12T21:56:18;18.10;99.90
5792;DHT22;2922;53.482;10.006;2023-09-12T21:58:44;18.10;99.90
5792;DHT22;2922;53.482;10.006;2023-09-12T22:01:09;18.00;99.90
5792;DHT22;2922;53.482;10.006;2023-09-12T22:03:35;18.00;99.90
5792;DHT22;2922;53.482;10.006;2023-09-12T22:06:06;18.10;99.90
5792;DHT22;2922;53.482;10.006;2023-09-12T22:08:32;18.00;99.90
5792;DHT22;2922;53.482;10.006;2023-09-12T22:10:57;18.00;99.90
5792;DHT22;2922;53.482;10.006;2023-09-12T22:13:23;18.00;99.90
5792;DHT22;2922;53.482;10.006;2023-09-12T22:15:49;18.10;99.90
5792;DHT22;2922;53.482;10.006;2023-09-12T22:18:15;18.00;99.90
5792;DHT22;2922;53.482;10.006;2023-09-12T22:20:41;18.10;99.90
5792;DHT22;2922;53.482;10.006;2023-09-12T22:23:06;18.10;99.90
5792;DHT22;2922;53.482;10.006;2023-09-12T22:25:32;18.10;99.90
5792;DHT22;2922;53.482;10.006;2023-09-12T22:27:57;18.10;99.90
5792;DHT22;2922;53.482;10.006;2023-09-12T22:30:23;18.00;99.90
5792;DHT22;2922;53.482;10.006;2023-09-12T22:32:48;18.10;99.90
5792;DHT22;2922;53.482;10.006;2023-09-12T22:35:14;18.00;99.90